Time;durP1;ratioP1;P1;durP2;ratioP2;P2;SDS_P1;SDS_P2;PMS_P1;PMS_P2;Temp;Humidity;BMP_temperature;BMP_pressure;BME280_temperature;BME280_humidity;BME280_pressure;Samples;Min_cycle;Max_cycle;Signal;HPM_P1;HPM_P2
2022/05/17 00:02:23;;;;;;;33.30;22.17;;;15.80;97.20;;;;;;4984611;28;20034;-89
2022/05/17 00:04:49;;;;;;;35.38;22.67;;;15.80;97.20;;;;;;4993871;28;20575;-89
2022/05/17 00:07:15;;;;;;;32.88;23.27;;;15.80;97.20;;;;;;5006035;28;20093;-89
2022/05/17 00:09:41;;;;;;;37.90;22.95;;;15.80;97.20;;;;;;5005093;28;20491;-88
2022/05/17 00:12:09;;;;;;;37.38;23.15;;;15.70;97.20;;;;;;4994560;28;20026;-88
2022/05/17 00:14:35;;;;;;;36.08;23.73;;;15.80;97.30;;;;;;5004025;28;20032;-89
2022/05/17 00:17:02;;;;;;;34.67;21.73;;;15.70;97.20;;;;;;5006045;28;20021;-88
2022/05/17 00:19:29;;;;;;;34.42;22.95;;;15.70;97.20;;;;;;4983254;28;20029;-88
2022/05/17 00:21:55;;;;;;;35.33;20.50;;;15.60;97.20;;;;;;5009801;28;20512;-88
2022/05/17 00:24:22;;;;;;;25.88;18.10;;;15.60;97.20;;;;;;5007201;28;20026;-88
2022/05/17 00:26:48;;;;;;;28.42;18.92;;;15.50;97.10;;;;;;4994308;28;20033;-87
2022/05/17 00:29:14;;;;;;;27.95;19.20;;;15.50;97.10;;;;;;4999388;28;20393;-88
2022/05/17 00:31:39;;;;;;;25.98;18.38;;;15.50;97.10;;;;;;4993322;28;20116;-88
2022/05/17 00:34:05;;;;;;;33.88;20.30;;;15.50;97.00;;;;;;4991595;28;20145;-90
2022/05/17 00:36:32;;;;;;;35.80;19.52;;;15.50;97.00;;;;;;4994875;28;20084;-88
2022/05/17 00:39:00;;;;;;;35.42;21.05;;;15.50;97.00;;;;;;5008069;28;20450;-88
2022/05/17 00:41:26;;;;;;;28.13;19.80;;;15.40;96.90;;;;;;4989353;28;20030;-88
2022/05/17 00:46:57;;;;;;;30.42;20.40;;;15.40;96.90;;;;;;5010221;28;20389;-88
2022/05/17 00:49:32;;;;;;;29.75;21.20;;;15.50;97.00;;;;;;5009083;28;20037;-88
2022/05/17 00:52:01;;;;;;;34.45;22.42;;;15.30;97.00;;;;;;4990024;28;20579;-88
2022/05/17 00:54:28;;;;;;;31.90;21.13;;;15.30;97.00;;;;;;4993586;28;20128;-88
2022/05/17 00:57:12;;;;;;;36.83;23.60;;;15.40;97.10;;;;;;5011086;28;20160;-89
2022/05/17 00:59:38;;;;;;;35.83;23.33;;;15.40;97.20;;;;;;5017236;28;20121;-88
2022/05/17 01:02:07;;;;;;;41.33;24.48;;;15.50;97.20;;;;;;5007366;28;20202;-88
2022/05/17 01:04:33;;;;;;;38.55;23.73;;;15.50;97.20;;;;;;5007584;28;20057;-88
2022/05/17 01:07:06;;;;;;;40.78;25.00;;;15.50;97.20;;;;;;5001847;28;20029;-88
2022/05/17 01:09:35;;;;;;;37.78;23.73;;;15.50;97.30;;;;;;5008519;28;20480;-88
2022/05/17 01:12:00;;;;;;;38.55;23.58;;;15.50;97.30;;;;;;5004897;28;20030;-88
2022/05/17 01:17:10;;;;;;;37.13;24.42;;;15.50;97.40;;;;;;5009670;28;20068;-88
2022/05/17 01:19:39;;;;;;;42.03;24.75;;;15.50;97.40;;;;;;5011250;28;20038;-89
2022/05/17 01:22:05;;;;;;;38.15;23.73;;;15.50;97.40;;;;;;4992514;28;20473;-89
2022/05/17 01:24:31;;;;;;;39.67;23.67;;;15.50;97.30;;;;;;4994861;28;20096;-88
2022/05/17 01:27:03;;;;;;;36.80;22.52;;;15.40;97.30;;;;;;5005132;28;20064;-88
2022/05/17 01:29:40;;;;;;;39.33;24.23;;;15.40;97.40;;;;;;4997843;28;20061;-88
2022/05/17 01:32:09;;;;;;;43.92;24.58;;;15.50;97.40;;;;;;4991678;28;20030;-88
2022/05/17 01:34:35;;;;;;;35.33;23.42;;;15.40;97.40;;;;;;4991499;28;20033;-88
2022/05/17 01:37:05;;;;;;;37.88;23.15;;;15.40;97.30;;;;;;5008838;28;20469;-88
2022/05/17 01:39:33;;;;;;;37.35;23.02;;;15.40;97.40;;;;;;5015975;28;20026;-88
2022/05/17 01:41:58;;;;;;;41.72;23.23;;;15.30;97.30;;;;;;4995081;28;20034;-89
2022/05/17 01:44:24;;;;;;;36.20;22.13;;;15.40;97.40;;;;;;4993301;28;20400;-89
2022/05/17 01:46:50;;;;;;;39.00;24.08;;;15.40;97.40;;;;;;5010386;28;20033;-89
2022/05/17 01:49:18;;;;;;;39.50;24.15;;;15.40;97.40;;;;;;5002724;28;20533;-88
2022/05/17 01:51:43;;;;;;;40.95;24.38;;;15.40;97.50;;;;;;5009329;28;20025;-88
2022/05/17 01:54:09;;;;;;;38.45;24.00;;;15.30;97.40;;;;;;4992055;28;20050;-88
2022/05/17 01:56:35;;;;;;;35.47;23.45;;;15.30;97.40;;;;;;4998925;28;20444;-88
2022/05/17 01:59:01;;;;;;;36.70;23.92;;;15.30;97.40;;;;;;5024730;28;20045;-88
2022/05/17 02:01:26;;;;;;;40.88;23.52;;;15.30;97.50;;;;;;4990613;28;20029;-88
2022/05/17 02:03:52;;;;;;;38.92;24.80;;;15.40;97.50;;;;;;5007321;28;20034;-88
2022/05/17 02:06:19;;;;;;;39.28;23.73;;;15.40;97.60;;;;;;4991255;28;20081;-88
2022/05/17 02:08:47;;;;;;;40.95;23.70;;;15.30;97.40;;;;;;4989637;28;20037;-88
2022/05/17 02:11:16;;;;;;;46.20;25.75;;;15.30;97.50;;;;;;5005987;28;20072;-88
2022/05/17 02:13:41;;;;;;;41.75;24.25;;;15.40;97.50;;;;;;4993846;28;20033;-88
2022/05/17 02:16:11;;;;;;;40.83;24.80;;;15.30;97.50;;;;;;4993635;28;20031;-88
2022/05/17 02:18:37;;;;;;;40.90;24.55;;;15.40;97.60;;;;;;4995697;28;20453;-88
2022/05/17 02:21:05;;;;;;;45.67;25.42;;;15.40;97.60;;;;;;5006800;28;20065;-88
2022/05/17 02:23:31;;;;;;;39.38;23.45;;;15.30;97.60;;;;;;4989759;28;20056;-88
2022/05/17 02:25:59;;;;;;;43.17;25.52;;;15.30;97.60;;;;;;4992975;28;20062;-88
2022/05/17 02:28:24;;;;;;;36.17;23.58;;;15.40;97.70;;;;;;4991503;28;20034;-88
2022/05/17 02:30:50;;;;;;;37.45;23.52;;;15.40;97.50;;;;;;5005488;28;20049;-88
2022/05/17 02:33:16;;;;;;;38.97;24.60;;;15.30;97.50;;;;;;4991075;28;20503;-88
2022/05/17 02:35:45;;;;;;;41.60;24.70;;;15.40;97.70;;;;;;4991252;28;20054;-88
2022/05/17 02:38:10;;;;;;;40.80;25.08;;;15.40;97.70;;;;;;5007222;28;20030;-88
2022/05/17 02:40:39;;;;;;;36.30;24.13;;;15.40;97.70;;;;;;4993398;28;20036;-88
2022/05/17 02:43:06;;;;;;;42.22;25.95;;;15.30;97.60;;;;;;4995099;28;20591;-88
2022/05/17 02:45:32;;;;;;;41.88;24.80;;;15.30;97.60;;;;;;5012555;28;20471;-88
2022/05/17 02:47:58;;;;;;;36.03;23.15;;;15.40;97.70;;;;;;5013754;28;20105;-88
2022/05/17 02:50:24;;;;;;;43.47;24.55;;;15.40;97.70;;;;;;5015593;28;20044;-89
2022/05/17 02:52:49;;;;;;;38.00;24.25;;;15.40;97.60;;;;;;4993309;28;20100;-89
2022/05/17 02:55:15;;;;;;;37.80;24.70;;;15.30;97.70;;;;;;5011316;28;20731;-89
2022/05/17 02:57:41;;;;;;;41.70;24.63;;;15.40;97.80;;;;;;5006505;28;20030;-89
2022/05/17 03:00:11;;;;;;;44.10;24.10;;;15.30;97.70;;;;;;4994020;28;20033;-89
2022/05/17 03:02:37;;;;;;;40.92;24.30;;;15.30;97.80;;;;;;4993158;28;20026;-90
2022/05/17 03:05:06;;;;;;;39.35;24.98;;;15.30;97.70;;;;;;4997682;28;20084;-90
2022/05/17 03:07:54;;;;;;;40.00;24.20;;;15.40;97.80;;;;;;4990392;28;20033;-90
2022/05/17 03:10:22;;;;;;;38.90;23.77;;;15.30;97.70;;;;;;5005349;28;20108;-91
2022/05/17 03:12:52;;;;;;;48.38;24.85;;;15.30;97.80;;;;;;5012404;28;20405;-90
2022/05/17 03:15:21;;;;;;;36.97;23.38;;;15.30;97.80;;;;;;4994821;28;20485;-91
2022/05/17 03:17:50;;;;;;;39.42;23.85;;;15.30;97.90;;;;;;4993828;28;20029;-90
2022/05/17 03:20:16;;;;;;;40.42;24.27;;;15.30;97.90;;;;;;5012603;28;20030;-90
2022/05/17 03:22:41;;;;;;;51.25;26.38;;;15.30;98.00;;;;;;5002400;28;20873;-89
2022/05/17 03:25:07;;;;;;;39.35;24.48;;;15.30;97.90;;;;;;4990732;28;20030;-89
2022/05/17 03:27:33;;;;;;;45.97;26.52;;;15.20;98.00;;;;;;4993461;28;20048;-89
2022/05/17 03:29:58;;;;;;;41.08;25.52;;;15.30;98.10;;;;;;5012939;28;20432;-89
2022/05/17 03:32:24;;;;;;;42.08;25.55;;;15.30;98.10;;;;;;5009564;28;20537;-89
2022/05/17 03:34:50;;;;;;;44.60;27.13;;;15.20;98.00;;;;;;5012302;28;20030;-89
2022/05/17 03:37:15;;;;;;;44.40;25.30;;;15.30;98.10;;;;;;4991518;28;20128;-89
2022/05/17 03:39:41;;;;;;;47.70;27.73;;;15.30;98.20;;;;;;4987502;28;20037;-89
2022/05/17 03:42:09;;;;;;;49.55;29.40;;;15.30;98.20;;;;;;5003155;28;20030;-89
2022/05/17 03:44:38;;;;;;;49.95;27.98;;;15.30;98.10;;;;;;4994749;28;20022;-89
2022/05/17 03:47:06;;;;;;;49.33;28.17;;;15.30;98.20;;;;;;5013090;28;20477;-89
2022/05/17 03:49:32;;;;;;;45.95;28.77;;;15.30;98.20;;;;;;4991649;28;20034;-89
2022/05/17 03:51:58;;;;;;;51.47;29.75;;;15.30;98.20;;;;;;4996594;28;20368;-89
2022/05/17 03:54:25;;;;;;;51.03;28.88;;;15.30;98.20;;;;;;4991204;28;20041;-89
2022/05/17 03:56:51;;;;;;;50.35;29.33;;;15.30;98.20;;;;;;5011275;28;20022;-90
2022/05/17 03:59:17;;;;;;;53.67;29.90;;;15.40;98.20;;;;;;5004941;28;20244;-90
2022/05/17 04:01:44;;;;;;;49.03;28.65;;;15.30;98.20;;;;;;4989078;28;20737;-90
2022/05/17 04:04:10;;;;;;;54.08;30.85;;;15.40;98.30;;;;;;5007832;28;20109;-89
2022/05/17 04:06:35;;;;;;;57.72;30.55;;;15.30;98.30;;;;;;5003792;28;20371;-89
2022/05/17 04:09:01;;;;;;;58.78;31.85;;;15.30;98.30;;;;;;4985654;28;20547;-88
2022/05/17 04:11:26;;;;;;;57.67;32.58;;;15.30;98.30;;;;;;5004773;28;20025;-89
2022/05/17 04:13:52;;;;;;;58.72;31.83;;;15.30;98.30;;;;;;5005415;28;20036;-90
2022/05/17 04:16:18;;;;;;;60.28;33.42;;;15.30;98.40;;;;;;4990730;28;20030;-89
2022/05/17 04:18:47;;;;;;;56.97;32.53;;;15.30;98.40;;;;;;5005427;28;20437;-90
2022/05/17 04:21:13;;;;;;;56.22;33.03;;;15.30;98.40;;;;;;4990818;28;20049;-91
2022/05/17 04:23:39;;;;;;;66.38;33.95;;;15.30;98.40;;;;;;4992301;28;20033;-90
2022/05/17 04:26:04;;;;;;;55.70;32.30;;;15.30;98.40;;;;;;4990978;28;20030;-90
2022/05/17 04:28:30;;;;;;;57.28;32.83;;;15.30;98.40;;;;;;5003471;28;20026;-91
2022/05/17 04:30:56;;;;;;;66.22;34.78;;;15.30;98.40;;;;;;5001182;28;20038;-89
2022/05/17 04:33:22;;;;;;;60.10;32.65;;;15.30;98.40;;;;;;4985056;28;20025;-89
2022/05/17 04:35:48;;;;;;;67.78;36.03;;;15.30;98.40;;;;;;5021457;28;20034;-90
2022/05/17 04:38:14;;;;;;;69.38;36.15;;;15.30;98.50;;;;;;4990097;28;20449;-90
2022/05/17 04:40:41;;;;;;;68.68;34.70;;;15.40;98.50;;;;;;5009650;28;20473;-90
2022/05/17 04:43:07;;;;;;;65.13;35.42;;;15.40;98.50;;;;;;5011396;28;20531;-90
2022/05/17 04:45:33;;;;;;;52.35;30.63;;;15.40;98.50;;;;;;4993651;28;20061;-90
2022/05/17 04:47:59;;;;;;;53.30;31.40;;;15.30;98.40;;;;;;4992512;28;20087;-89
2022/05/17 04:50:24;;;;;;;56.33;30.58;;;15.30;98.40;;;;;;4991934;28;20032;-89
2022/05/17 04:52:50;;;;;;;53.05;30.15;;;15.30;98.50;;;;;;4989793;28;20042;-89
2022/05/17 04:55:18;;;;;;;49.95;28.65;;;15.30;98.50;;;;;;4991078;28;20025;-90
2022/05/17 04:57:44;;;;;;;51.30;29.92;;;15.30;98.50;;;;;;5008698;28;20022;-91
2022/05/17 05:00:16;;;;;;;53.67;29.85;;;15.30;98.50;;;;;;4989426;28;20049;-91
2022/05/17 05:02:42;;;;;;;46.15;28.48;;;15.30;98.50;;;;;;5004387;28;20041;-91
2022/05/17 05:05:08;;;;;;;56.55;29.23;;;15.30;98.50;;;;;;4995396;28;20026;-89
2022/05/17 05:07:33;;;;;;;55.60;31.45;;;15.30;98.50;;;;;;5011354;28;20040;-91
2022/05/17 05:09:59;;;;;;;60.60;32.65;;;15.30;98.60;;;;;;5007372;28;20026;-91
2022/05/17 05:12:25;;;;;;;58.38;32.50;;;15.30;98.50;;;;;;5008646;28;20026;-91
2022/05/17 05:14:50;;;;;;;58.20;33.33;;;15.30;98.60;;;;;;4991480;28;20019;-90
2022/05/17 05:17:16;;;;;;;56.20;30.98;;;15.30;98.50;;;;;;5010837;28;20044;-91
2022/05/17 05:19:41;;;;;;;58.35;31.27;;;15.20;98.50;;;;;;5009142;28;20030;-91
2022/05/17 05:22:07;;;;;;;59.47;33.28;;;15.30;98.60;;;;;;4994156;28;20022;-90
2022/05/17 05:24:35;;;;;;;56.33;32.55;;;15.30;98.60;;;;;;4993107;28;20037;-88
2022/05/17 05:27:01;;;;;;;55.17;33.08;;;15.30;98.50;;;;;;4999063;28;20034;-89
2022/05/17 05:29:26;;;;;;;58.28;32.55;;;15.30;98.60;;;;;;4992882;28;20034;-89
2022/05/17 05:31:52;;;;;;;59.03;32.17;;;15.30;98.60;;;;;;5004180;28;20481;-90
2022/05/17 05:34:18;;;;;;;60.53;32.88;;;15.40;98.60;;;;;;5004834;28;20566;-90
2022/05/17 05:36:44;;;;;;;59.45;32.92;;;15.40;98.60;;;;;;5003206;28;20317;-89
2022/05/17 05:39:09;;;;;;;59.83;32.83;;;15.40;98.60;;;;;;4991253;28;20041;-89
2022/05/17 05:41:35;;;;;;;53.53;31.70;;;15.50;98.60;;;;;;4996560;28;20037;-90
2022/05/17 05:44:00;;;;;;;50.80;31.73;;;15.50;98.50;;;;;;4999862;28;20049;-90
2022/05/17 05:46:27;;;;;;;53.00;31.52;;;15.50;98.50;;;;;;5003140;28;20053;-90
2022/05/17 05:48:53;;;;;;;55.38;29.73;;;15.50;98.50;;;;;;4992278;28;20080;-89
2022/05/17 05:51:19;;;;;;;51.67;30.63;;;15.50;98.50;;;;;;5009303;28;20382;-90
2022/05/17 05:53:44;;;;;;;49.33;30.50;;;15.50;98.50;;;;;;4994120;28;20044;-90
2022/05/17 05:56:11;;;;;;;48.33;30.27;;;15.50;98.40;;;;;;5008215;28;20033;-89
2022/05/17 05:58:39;;;;;;;51.75;30.40;;;15.50;98.40;;;;;;4991033;28;20023;-90
2022/05/17 06:01:06;;;;;;;48.08;31.70;;;15.50;98.40;;;;;;4988047;28;20515;-90
2022/05/17 06:03:32;;;;;;;54.78;32.67;;;15.50;98.30;;;;;;4984075;28;20053;-89
2022/05/17 06:06:00;;;;;;;54.92;32.58;;;15.50;98.30;;;;;;5024559;28;20030;-90
2022/05/17 06:08:25;;;;;;;55.83;31.38;;;15.60;98.30;;;;;;5003415;28;20036;-90
2022/05/17 06:10:51;;;;;;;62.20;32.97;;;15.50;98.20;;;;;;5002483;28;20496;-90
2022/05/17 06:13:18;;;;;;;54.47;32.22;;;15.60;98.20;;;;;;4993638;28;20131;-89
2022/05/17 06:15:44;;;;;;;48.25;31.50;;;15.60;98.10;;;;;;5004564;28;20057;-89
2022/05/17 06:18:11;;;;;;;50.50;31.85;;;15.60;98.10;;;;;;4993401;28;20451;-89
2022/05/17 06:20:37;;;;;;;59.03;31.33;;;15.60;98.10;;;;;;4988923;28;20022;-89
2022/05/17 06:23:07;;;;;;;51.95;31.77;;;15.60;98.10;;;;;;4995908;28;20041;-89
2022/05/17 06:25:33;;;;;;;58.97;32.97;;;15.60;98.00;;;;;;4992931;28;20030;-90
2022/05/17 06:27:59;;;;;;;57.58;32.60;;;15.60;98.00;;;;;;4994485;28;20048;-89
2022/05/17 06:30:25;;;;;;;57.75;32.08;;;15.60;98.00;;;;;;4988383;28;20385;-89
2022/05/17 06:32:51;;;;;;;60.05;32.60;;;15.60;98.10;;;;;;4992903;28;20026;-89
2022/05/17 06:35:17;;;;;;;55.50;32.50;;;15.60;97.80;;;;;;4991003;28;20028;-89
2022/05/17 06:37:43;;;;;;;55.05;31.52;;;15.60;97.90;;;;;;4990817;28;20030;-89
2022/05/17 06:40:10;;;;;;;55.20;32.78;;;15.70;98.00;;;;;;4993713;28;20026;-89
2022/05/17 06:42:35;;;;;;;59.28;33.25;;;15.70;97.90;;;;;;5011097;28;20066;-89
2022/05/17 06:45:01;;;;;;;60.67;32.42;;;15.80;98.00;;;;;;4994155;28;20603;-89
2022/05/17 06:47:27;;;;;;;55.15;32.08;;;15.80;97.90;;;;;;4992259;28;20444;-89
2022/05/17 06:49:53;;;;;;;62.42;32.35;;;15.80;97.80;;;;;;5008067;28;20029;-89
2022/05/17 06:52:20;;;;;;;59.80;32.00;;;15.90;97.80;;;;;;5003964;28;20034;-89
2022/05/17 06:54:45;;;;;;;54.60;31.45;;;15.90;97.80;;;;;;4992425;28;20923;-89
2022/05/17 06:57:13;;;;;;;56.22;32.78;;;16.00;97.70;;;;;;5005964;28;20559;-89
2022/05/17 06:59:40;;;;;;;48.92;30.75;;;15.90;97.70;;;;;;4993859;28;20034;-89
2022/05/17 07:02:07;;;;;;;52.10;31.20;;;15.80;97.40;;;;;;4995209;28;20025;-89
2022/05/17 07:04:33;;;;;;;53.22;29.42;;;15.80;97.50;;;;;;4990546;28;20022;-88
2022/05/17 07:07:00;;;;;;;55.38;30.73;;;15.80;97.40;;;;;;5008812;28;20062;-89
2022/05/17 07:09:27;;;;;;;50.78;30.55;;;16.00;97.50;;;;;;4992466;28;20029;-89
2022/05/17 07:14:39;;;;;;;54.28;31.42;;;16.00;97.40;;;;;;5011710;28;20083;-89
2022/05/17 07:17:06;;;;;;;55.45;30.00;;;16.00;97.40;;;;;;4991170;28;20037;-89
2022/05/17 07:19:34;;;;;;;51.55;29.48;;;16.00;97.20;;;;;;4993340;28;20026;-89
2022/05/17 07:22:05;;;;;;;49.45;29.02;;;16.10;97.30;;;;;;4989248;28;20474;-89
2022/05/17 07:24:31;;;;;;;45.15;27.85;;;16.10;97.10;;;;;;4992280;28;20030;-89
2022/05/17 07:26:58;;;;;;;44.72;28.02;;;16.10;97.10;;;;;;5010347;28;20587;-89
2022/05/17 07:29:24;;;;;;;43.28;27.58;;;16.10;97.10;;;;;;5013403;28;20025;-89
2022/05/17 07:31:49;;;;;;;46.20;27.92;;;16.10;97.00;;;;;;4996167;28;20137;-89
2022/05/17 07:34:16;;;;;;;46.33;28.25;;;16.10;97.00;;;;;;5012310;28;20025;-89
2022/05/17 07:36:41;;;;;;;51.10;28.73;;;16.10;97.00;;;;;;5020206;28;20496;-89
2022/05/17 07:39:08;;;;;;;51.70;28.55;;;16.30;97.00;;;;;;5031844;28;20026;-88
2022/05/17 07:41:34;;;;;;;44.95;26.45;;;16.40;96.90;;;;;;5012160;28;20045;-88
2022/05/17 07:44:03;;;;;;;44.70;25.83;;;16.50;96.50;;;;;;4988758;28;20023;-89
2022/05/17 07:46:29;;;;;;;40.45;25.88;;;16.70;96.50;;;;;;5012106;28;20022;-89
2022/05/17 07:48:55;;;;;;;34.42;24.33;;;16.80;96.20;;;;;;4991435;28;20556;-89
2022/05/17 07:51:20;;;;;;;32.10;22.65;;;17.00;95.60;;;;;;4994083;28;20030;-90
2022/05/17 07:53:46;;;;;;;34.58;22.73;;;17.00;95.20;;;;;;4992961;28;20051;-89
2022/05/17 07:56:13;;;;;;;39.13;22.25;;;17.20;95.10;;;;;;4999543;28;20030;-89
2022/05/17 07:58:38;;;;;;;31.80;19.90;;;17.10;93.80;;;;;;5009314;28;20549;-89
2022/05/17 08:01:04;;;;;;;35.22;20.88;;;17.10;93.60;;;;;;4992495;28;20158;-89
2022/05/17 08:03:31;;;;;;;25.05;18.45;;;17.10;93.70;;;;;;4981473;28;20037;-89
2022/05/17 08:05:56;;;;;;;27.13;19.02;;;17.30;93.90;;;;;;5028268;28;20044;-90
2022/05/17 08:08:22;;;;;;;33.15;18.98;;;17.10;93.50;;;;;;4995025;28;20409;-90
2022/05/17 08:10:50;;;;;;;31.40;19.92;;;17.30;93.70;;;;;;4995410;28;20037;-89
2022/05/17 08:13:17;;;;;;;28.42;19.25;;;17.50;93.80;;;;;;4996080;28;20077;-89
2022/05/17 08:15:43;;;;;;;29.27;20.58;;;17.60;93.70;;;;;;5013730;28;20029;-89
2022/05/17 08:18:10;;;;;;;26.33;19.20;;;17.60;93.30;;;;;;4995034;28;20133;-89
2022/05/17 08:20:36;;;;;;;26.13;18.75;;;17.60;93.20;;;;;;4995155;28;20434;-89
2022/05/17 08:23:04;;;;;;;34.33;19.88;;;17.50;93.10;;;;;;4994711;28;20048;-89
2022/05/17 08:28:14;;;;;;;29.05;19.88;;;17.70;93.00;;;;;;5021586;28;20511;-89
2022/05/17 08:30:40;;;;;;;29.30;20.13;;;18.20;92.80;;;;;;4992937;28;20038;-88
2022/05/17 08:33:16;;;;;;;31.95;20.35;;;18.00;91.50;;;;;;4991337;28;20469;-89
2022/05/17 08:35:50;;;;;;;28.70;19.27;;;18.10;92.00;;;;;;5010645;28;20022;-89
2022/05/17 08:38:40;;;;;;;29.13;18.90;;;18.10;91.60;;;;;;5003269;28;20093;-89
2022/05/17 08:41:24;;;;;;;28.17;17.90;;;18.10;91.30;;;;;;4982044;28;20037;-89
2022/05/17 08:44:02;;;;;;;26.75;18.23;;;18.30;91.80;;;;;;5012207;28;20113;-89
2022/05/17 08:47:00;;;;;;;25.38;18.40;;;18.20;90.90;;;;;;5017029;28;20034;-89
2022/05/17 08:49:27;;;;;;;24.40;17.35;;;18.10;90.50;;;;;;5012151;28;20034;-89
2022/05/17 08:52:13;;;;;;;26.45;17.27;;;18.10;90.60;;;;;;5006870;28;20467;-89
2022/05/17 08:54:45;;;;;;;22.33;16.40;;;18.20;90.30;;;;;;4991002;28;20054;-89
2022/05/17 08:57:29;;;;;;;24.08;16.30;;;18.30;89.90;;;;;;4991617;28;20030;-89
2022/05/17 08:59:56;;;;;;;24.33;16.98;;;18.30;89.80;;;;;;5004687;28;20120;-89
2022/05/17 09:02:32;;;;;;;26.58;16.40;;;18.40;89.20;;;;;;4993420;28;20284;-90
2022/05/17 09:05:09;;;;;;;25.98;17.30;;;18.50;89.60;;;;;;4992114;28;20121;-89
2022/05/17 09:07:58;;;;;;;25.20;17.58;;;18.50;89.00;;;;;;5006855;28;20034;-89
2022/05/17 09:10:37;;;;;;;25.50;17.42;;;18.30;88.10;;;;;;5009808;28;20022;-89
2022/05/17 09:13:19;;;;;;;23.23;16.88;;;18.20;89.00;;;;;;5010936;28;20037;-89
2022/05/17 09:15:45;;;;;;;27.23;18.02;;;18.20;89.50;;;;;;4992251;28;20026;-89
2022/05/17 09:18:14;;;;;;;26.52;17.48;;;18.30;89.00;;;;;;5010704;28;20052;-89
2022/05/17 09:20:40;;;;;;;26.02;17.48;;;18.50;88.70;;;;;;4995113;28;20034;-89
2022/05/17 09:23:06;;;;;;;28.95;18.73;;;18.80;88.90;;;;;;4992375;28;20061;-89
2022/05/17 09:26:06;;;;;;;24.70;16.70;;;19.10;88.90;;;;;;4993417;28;20636;-89
2022/05/17 09:28:52;;;;;;;24.08;17.05;;;19.20;88.20;;;;;;5001902;28;20106;-89
2022/05/17 09:31:21;;;;;;;25.25;16.85;;;19.10;87.70;;;;;;4992715;28;20062;-89
2022/05/17 09:33:51;;;;;;;22.58;16.92;;;19.10;87.40;;;;;;5006510;28;20112;-89
2022/05/17 09:36:22;;;;;;;24.35;17.10;;;19.30;88.40;;;;;;5004027;28;20025;-90
2022/05/17 09:38:51;;;;;;;;;;;19.50;89.30;;;;;;5012715;28;20030;-91
2022/05/17 09:41:25;;;;;;;20.75;14.73;;;19.70;89.10;;;;;;5003828;28;20245;-90
2022/05/17 09:44:08;;;;;;;18.83;14.57;;;19.40;87.90;;;;;;5012546;28;20060;-89
2022/05/17 09:46:46;;;;;;;17.08;13.95;;;19.40;88.80;;;;;;4993742;28;20030;-90
2022/05/17 09:54:53;;;;;;;20.73;14.45;;;19.20;88.90;;;;;;5009849;28;20064;-90
2022/05/17 09:57:25;;;;;;;22.27;14.38;;;20.00;88.50;;;;;;5010093;28;20330;-90
2022/05/17 09:59:55;;;;;;;17.90;14.90;;;19.70;87.90;;;;;;4995535;28;20469;-90
2022/05/17 10:02:32;;;;;;;21.73;13.40;;;19.70;88.30;;;;;;4990308;28;20065;-91
2022/05/17 10:05:01;;;;;;;19.85;14.27;;;19.50;89.00;;;;;;4984180;28;20121;-90
2022/05/17 10:07:30;;;;;;;19.20;13.35;;;19.30;88.20;;;;;;5011208;28;20036;-90
2022/05/17 10:09:56;;;;;;;20.55;14.68;;;19.20;89.60;;;;;;4993372;28;20026;-90
2022/05/17 10:12:37;;;;;;;20.02;14.85;;;19.10;90.20;;;;;;4991018;28;20076;-90
2022/05/17 10:15:10;;;;;;;18.63;14.68;;;19.00;90.50;;;;;;4992490;28;20022;-90
2022/05/17 10:17:47;;;;;;;20.67;15.00;;;18.70;89.30;;;;;;4992616;28;20088;-90
2022/05/17 10:20:23;;;;;;;19.02;14.23;;;18.70;90.10;;;;;;4993839;28;20326;-90
2022/05/17 10:22:48;;;;;;;20.55;15.23;;;18.60;90.70;;;;;;4992201;28;20037;-90
2022/05/17 10:25:31;;;;;;;21.50;14.05;;;18.30;89.90;;;;;;5008745;28;20037;-90
2022/05/17 10:28:02;;;;;;;23.10;15.70;;;18.30;90.60;;;;;;4999377;28;20033;-89
2022/05/17 10:30:56;;;;;;;24.80;15.68;;;18.00;90.20;;;;;;5012939;28;20026;-89
2022/05/17 10:33:35;;;;;;;19.48;15.18;;;18.10;91.00;;;;;;5019328;28;20037;-90
2022/05/17 10:36:17;;;;;;;24.13;15.75;;;18.40;91.80;;;;;;4989345;28;20026;-90
2022/05/17 10:39:09;;;;;;;22.95;16.08;;;18.20;90.60;;;;;;5007951;28;20060;-90
2022/05/17 10:41:37;;;;;;;20.40;14.60;;;18.60;91.50;;;;;;4990720;28;20072;-90
2022/05/17 10:44:07;;;;;;;20.08;15.55;;;18.60;91.80;;;;;;4994581;28;20057;-90
2022/05/17 10:46:38;;;;;;;25.60;15.07;;;18.70;91.50;;;;;;4993546;28;20057;-90
2022/05/17 10:49:16;;;;;;;22.08;15.18;;;18.60;91.40;;;;;;4994549;28;20025;-90
2022/05/17 10:52:09;;;;;;;22.20;14.98;;;19.00;91.90;;;;;;5003030;28;20040;-90
2022/05/17 10:54:56;;;;;;;21.83;14.55;;;19.10;90.90;;;;;;5005759;28;20120;-90
2022/05/17 10:57:50;;;;;;;20.42;14.35;;;19.10;88.70;;;;;;5010628;28;20057;-90
2022/05/17 11:00:22;;;;;;;20.48;14.60;;;19.00;89.50;;;;;;4999624;28;20057;-89
2022/05/17 11:03:27;;;;;;;24.20;16.30;;;18.90;90.70;;;;;;5008290;28;20032;-89
2022/05/17 11:06:26;;;;;;;26.73;16.48;;;18.60;91.20;;;;;;5026028;28;20042;-89
2022/05/17 11:09:10;;;;;;;21.08;15.77;;;18.40;92.00;;;;;;5010974;28;20061;-90
2022/05/17 11:11:59;;;;;;;25.40;17.88;;;18.10;92.40;;;;;;4998164;28;20089;-89
2022/05/17 11:14:33;;;;;;;24.15;17.17;;;18.10;93.10;;;;;;5023070;28;20059;-89
2022/05/17 11:17:14;;;;;;;26.85;18.48;;;18.10;93.10;;;;;;4987949;28;20022;-89
2022/05/17 11:20:14;;;;;;;24.67;17.58;;;18.30;93.40;;;;;;4996025;28;20061;-89
2022/05/17 11:22:50;;;;;;;27.95;18.42;;;18.50;93.50;;;;;;4993333;28;20503;-89
2022/05/17 11:25:28;;;;;;;32.33;18.60;;;18.90;93.20;;;;;;5010296;28;20811;-89
2022/05/17 11:28:06;;;;;;;28.73;18.63;;;19.00;92.30;;;;;;5007704;28;20393;-89
2022/05/17 11:30:35;;;;;;;22.25;17.27;;;19.10;91.60;;;;;;5013671;28;20388;-89
2022/05/17 11:33:28;;;;;;;27.25;17.83;;;19.40;91.90;;;;;;4992598;28;20477;-89
2022/05/17 11:36:02;;;;;;;24.65;16.65;;;19.50;91.50;;;;;;4995200;28;20030;-89
2022/05/17 11:38:43;;;;;;;24.77;16.63;;;19.60;90.80;;;;;;4992522;28;20113;-89
2022/05/17 11:41:15;;;;;;;28.48;16.30;;;19.90;90.50;;;;;;4994788;28;20061;-89
2022/05/17 11:43:48;;;;;;;23.02;15.73;;;19.80;88.80;;;;;;5012575;28;20041;-89
2022/05/17 11:46:30;;;;;;;22.45;15.80;;;20.10;88.70;;;;;;4996250;28;20033;-90
2022/05/17 11:48:58;;;;;;;22.20;15.13;;;20.20;86.50;;;;;;5012043;28;20037;-89
2022/05/17 11:51:29;;;;;;;21.98;15.25;;;20.20;86.50;;;;;;4994928;28;20034;-89
2022/05/17 11:53:55;;;;;;;22.10;15.15;;;20.30;85.20;;;;;;5011964;28;20074;-90
2022/05/17 11:56:28;;;;;;;25.17;14.70;;;20.60;85.00;;;;;;5008492;28;20080;-89
2022/05/17 11:59:16;;;;;;;22.70;14.13;;;21.20;84.80;;;;;;5011140;28;20443;-90
2022/05/17 12:01:44;;;;;;;19.63;14.07;;;21.50;82.10;;;;;;5011609;28;20516;-90
2022/05/17 12:04:22;;;;;;;19.77;13.75;;;21.80;83.60;;;;;;4993734;28;20116;-90
2022/05/17 12:06:55;;;;;;;19.42;13.68;;;22.00;81.80;;;;;;5007674;28;20137;-90
2022/05/17 12:09:24;;;;;;;18.92;14.27;;;21.20;80.70;;;;;;5009298;28;20374;-90
2022/05/17 12:12:18;;;;;;;18.88;13.85;;;21.50;82.60;;;;;;5011124;28;20136;-90
2022/05/17 12:15:01;;;;;;;19.75;13.07;;;21.50;82.50;;;;;;5006123;28;20655;-90
2022/05/17 12:17:37;;;;;;;18.40;12.48;;;21.20;80.30;;;;;;5001859;28;20026;-90
2022/05/17 12:20:15;;;;;;;16.98;12.25;;;21.30;82.30;;;;;;5011064;28;20036;-90
2022/05/17 12:23:09;;;;;;;17.90;13.65;;;21.20;81.50;;;;;;5011247;28;20026;-89
2022/05/17 12:25:51;;;;;;;21.00;13.43;;;21.00;80.50;;;;;;4992095;28;20028;-90
2022/05/17 12:28:26;;;;;;;18.73;13.40;;;21.00;82.60;;;;;;4983055;28;20489;-89
2022/05/17 12:30:53;;;;;;;17.65;13.32;;;21.00;79.90;;;;;;4990817;28;20037;-90
2022/05/17 12:33:31;;;;;;;17.08;13.20;;;20.90;81.40;;;;;;5022282;28;20512;-89
2022/05/17 12:36:18;;;;;;;18.40;12.43;;;20.80;82.70;;;;;;5006028;28;20026;-88
2022/05/17 12:44:56;;;;;;;17.48;11.48;;;20.70;84.40;;;;;;5005557;28;20037;-88
2022/05/17 12:47:28;;;;;;;21.90;12.32;;;20.60;85.70;;;;;;4987280;28;20084;-89
2022/05/17 12:49:56;;;;;;;19.23;13.27;;;20.50;85.80;;;;;;4991146;28;20034;-89
2022/05/17 12:52:30;;;;;;;16.85;12.80;;;20.50;85.10;;;;;;4999978;28;20076;-89
2022/05/17 12:55:01;;;;;;;19.02;12.52;;;20.50;85.80;;;;;;5008949;28;20073;-89
2022/05/17 12:57:33;;;;;;;16.70;11.85;;;20.50;85.10;;;;;;4994610;28;20113;-89
2022/05/17 13:00:10;;;;;;;18.95;12.38;;;21.10;85.20;;;;;;4995978;28;20054;-89
2022/05/17 13:02:42;;;;;;;17.65;12.73;;;21.10;83.90;;;;;;5006322;28;20477;-88
2022/05/17 13:05:30;;;;;;;16.67;11.32;;;21.20;83.10;;;;;;5010934;28;20129;-88
2022/05/17 13:08:21;;;;;;;16.58;10.63;;;22.00;83.70;;;;;;4991262;28;20057;-88